sensor_id;sensor_type;location;lat;lon;timestamp;P1;durP1;ratioP1;P2;durP2;ratioP2
75148;SDS011;63724;47.470;19.166;2023-02-18T00:02:31;15.07;;;8.07;;
75148;SDS011;63724;47.470;19.166;2023-02-18T00:05:34;13.45;;;7.60;;
75148;SDS011;63724;47.470;19.166;2023-02-18T00:08:36;12.47;;;7.40;;
75148;SDS011;63724;47.470;19.166;2023-02-18T00:11:39;11.77;;;6.97;;
75148;SDS011;63724;47.470;19.166;2023-02-18T00:14:41;11.77;;;5.70;;
75148;SDS011;63724;47.470;19.166;2023-02-18T00:17:43;11.45;;;5.68;;
75148;SDS011;63724;47.470;19.166;2023-02-18T00:20:46;9.05;;;4.80;;
75148;SDS011;63724;47.470;19.166;2023-02-18T00:23:48;10.50;;;3.70;;
75148;SDS011;63724;47.470;19.166;2023-02-18T00:26:51;6.60;;;3.43;;
75148;SDS011;63724;47.470;19.166;2023-02-18T00:29:53;7.13;;;3.83;;
75148;SDS011;63724;47.470;19.166;2023-02-18T00:32:56;6.63;;;3.10;;
75148;SDS011;63724;47.470;19.166;2023-02-18T00:36:05;10.07;;;2.95;;
75148;SDS011;63724;47.470;19.166;2023-02-18T00:39:11;8.33;;;3.37;;
75148;SDS011;63724;47.470;19.166;2023-02-18T00:42:14;5.30;;;2.87;;
75148;SDS011;63724;47.470;19.166;2023-02-18T00:45:17;3.88;;;2.33;;
75148;SDS011;63724;47.470;19.166;2023-02-18T00:48:19;7.82;;;3.17;;
75148;SDS011;63724;47.470;19.166;2023-02-18T00:51:22;4.85;;;2.75;;
75148;SDS011;63724;47.470;19.166;2023-02-18T00:54:26;5.43;;;2.40;;
75148;SDS011;63724;47.470;19.166;2023-02-18T00:57:28;4.23;;;2.53;;
75148;SDS011;63724;47.470;19.166;2023-02-18T01:00:31;5.10;;;2.90;;
75148;SDS011;63724;47.470;19.166;2023-02-18T01:03:34;2.83;;;1.88;;
75148;SDS011;63724;47.470;19.166;2023-02-18T01:06:37;4.85;;;2.10;;
75148;SDS011;63724;47.470;19.166;2023-02-18T01:09:40;3.27;;;1.70;;
75148;SDS011;63724;47.470;19.166;2023-02-18T01:12:42;2.80;;;1.60;;
75148;SDS011;63724;47.470;19.166;2023-02-18T01:15:44;2.33;;;1.35;;
75148;SDS011;63724;47.470;19.166;2023-02-18T01:18:47;6.25;;;1.40;;
75148;SDS011;63724;47.470;19.166;2023-02-18T01:21:49;3.05;;;1.27;;
75148;SDS011;63724;47.470;19.166;2023-02-18T01:24:52;1.77;;;0.97;;
75148;SDS011;63724;47.470;19.166;2023-02-18T01:27:54;2.17;;;0.90;;
75148;SDS011;63724;47.470;19.166;2023-02-18T01:30:57;1.55;;;1.00;;
75148;SDS011;63724;47.470;19.166;2023-02-18T01:33:59;2.55;;;0.95;;
75148;SDS011;63724;47.470;19.166;2023-02-18T01:37:03;1.25;;;0.73;;
75148;SDS011;63724;47.470;19.166;2023-02-18T01:40:06;2.10;;;0.67;;
75148;SDS011;63724;47.470;19.166;2023-02-18T01:43:09;1.10;;;0.60;;
75148;SDS011;63724;47.470;19.166;2023-02-18T01:49:20;0.70;;;0.70;;
75148;SDS011;63724;47.470;19.166;2023-02-18T01:52:34;4.53;;;0.47;;
75148;SDS011;63724;47.470;19.166;2023-02-18T01:55:36;5.40;;;0.53;;
75148;SDS011;63724;47.470;19.166;2023-02-18T01:58:40;0.90;;;0.50;;
75148;SDS011;63724;47.470;19.166;2023-02-18T02:01:43;0.88;;;0.57;;
75148;SDS011;63724;47.470;19.166;2023-02-18T02:04:47;3.97;;;0.40;;
75148;SDS011;63724;47.470;19.166;2023-02-18T02:07:50;1.50;;;0.70;;
75148;SDS011;63724;47.470;19.166;2023-02-18T02:18:25;9.93;;;1.55;;
75148;SDS011;63724;47.470;19.166;2023-02-18T02:35:22;3.28;;;0.50;;
75148;SDS011;63724;47.470;19.166;2023-02-18T02:45:06;1.07;;;0.33;;
75148;SDS011;63724;47.470;19.166;2023-02-18T02:51:17;1.40;;;0.60;;
75148;SDS011;63724;47.470;19.166;2023-02-18T02:54:30;1.45;;;0.50;;
75148;SDS011;63724;47.470;19.166;2023-02-18T03:11:10;3.60;;;0.50;;
75148;SDS011;63724;47.470;19.166;2023-02-18T03:14:27;0.60;;;0.32;;
75148;SDS011;63724;47.470;19.166;2023-02-18T03:17:37;1.17;;;0.43;;
75148;SDS011;63724;47.470;19.166;2023-02-18T03:20:49;4.60;;;0.57;;
75148;SDS011;63724;47.470;19.166;2023-02-18T03:23:55;0.60;;;0.30;;
75148;SDS011;63724;47.470;19.166;2023-02-18T03:27:07;0.68;;;0.40;;
75148;SDS011;63724;47.470;19.166;2023-02-18T03:30:20;0.43;;;0.30;;
75148;SDS011;63724;47.470;19.166;2023-02-18T03:33:27;2.00;;;0.43;;
75148;SDS011;63724;47.470;19.166;2023-02-18T03:36:39;3.13;;;0.50;;
75148;SDS011;63724;47.470;19.166;2023-02-18T03:39:43;3.15;;;0.40;;
75148;SDS011;63724;47.470;19.166;2023-02-18T03:42:48;1.85;;;0.52;;
75148;SDS011;63724;47.470;19.166;2023-02-18T03:45:50;0.60;;;0.30;;
75148;SDS011;63724;47.470;19.166;2023-02-18T03:48:53;0.73;;;0.43;;
75148;SDS011;63724;47.470;19.166;2023-02-18T03:51:55;1.03;;;0.30;;
75148;SDS011;63724;47.470;19.166;2023-02-18T03:54:58;6.20;;;0.75;;
75148;SDS011;63724;47.470;19.166;2023-02-18T03:58:00;1.88;;;0.70;;
75148;SDS011;63724;47.470;19.166;2023-02-18T04:01:03;1.55;;;0.30;;
75148;SDS011;63724;47.470;19.166;2023-02-18T04:04:06;0.73;;;0.40;;
75148;SDS011;63724;47.470;19.166;2023-02-18T04:07:08;0.80;;;0.37;;
75148;SDS011;63724;47.470;19.166;2023-02-18T04:10:10;0.93;;;0.60;;
75148;SDS011;63724;47.470;19.166;2023-02-18T04:13:13;0.65;;;0.40;;
75148;SDS011;63724;47.470;19.166;2023-02-18T04:16:15;0.93;;;0.30;;
75148;SDS011;63724;47.470;19.166;2023-02-18T04:19:18;2.33;;;0.40;;
75148;SDS011;63724;47.470;19.166;2023-02-18T04:22:20;1.63;;;0.40;;
75148;SDS011;63724;47.470;19.166;2023-02-18T04:25:22;0.43;;;0.20;;
75148;SDS011;63724;47.470;19.166;2023-02-18T04:28:25;0.35;;;0.20;;
75148;SDS011;63724;47.470;19.166;2023-02-18T04:31:28;0.38;;;0.30;;
75148;SDS011;63724;47.470;19.166;2023-02-18T04:34:30;1.00;;;0.40;;
75148;SDS011;63724;47.470;19.166;2023-02-18T04:37:35;3.87;;;0.47;;
75148;SDS011;63724;47.470;19.166;2023-02-18T04:40:37;1.50;;;0.20;;
75148;SDS011;63724;47.470;19.166;2023-02-18T04:43:39;0.80;;;0.30;;
75148;SDS011;63724;47.470;19.166;2023-02-18T04:46:42;0.90;;;0.40;;
75148;SDS011;63724;47.470;19.166;2023-02-18T04:49:44;0.50;;;0.33;;
75148;SDS011;63724;47.470;19.166;2023-02-18T04:52:47;2.10;;;0.30;;
75148;SDS011;63724;47.470;19.166;2023-02-18T04:55:50;1.15;;;0.30;;
75148;SDS011;63724;47.470;19.166;2023-02-18T04:58:52;2.13;;;0.47;;
75148;SDS011;63724;47.470;19.166;2023-02-18T05:01:55;0.85;;;0.40;;
75148;SDS011;63724;47.470;19.166;2023-02-18T05:04:57;0.40;;;0.27;;
75148;SDS011;63724;47.470;19.166;2023-02-18T05:08:00;1.50;;;0.50;;
75148;SDS011;63724;47.470;19.166;2023-02-18T05:11:06;1.17;;;0.25;;
75148;SDS011;63724;47.470;19.166;2023-02-18T05:14:09;2.00;;;0.45;;
75148;SDS011;63724;47.470;19.166;2023-02-18T05:17:12;0.95;;;0.52;;
75148;SDS011;63724;47.470;19.166;2023-02-18T05:20:16;1.27;;;0.37;;
75148;SDS011;63724;47.470;19.166;2023-02-18T05:23:19;0.57;;;0.30;;
75148;SDS011;63724;47.470;19.166;2023-02-18T05:26:22;1.23;;;0.40;;
75148;SDS011;63724;47.470;19.166;2023-02-18T05:29:24;0.50;;;0.43;;
75148;SDS011;63724;47.470;19.166;2023-02-18T05:32:27;0.88;;;0.30;;
75148;SDS011;63724;47.470;19.166;2023-02-18T05:35:29;1.10;;;0.40;;
75148;SDS011;63724;47.470;19.166;2023-02-18T05:38:31;1.03;;;0.40;;
75148;SDS011;63724;47.470;19.166;2023-02-18T05:41:34;0.35;;;0.20;;
75148;SDS011;63724;47.470;19.166;2023-02-18T05:44:36;1.17;;;0.52;;
75148;SDS011;63724;47.470;19.166;2023-02-18T05:47:38;0.38;;;0.35;;
75148;SDS011;63724;47.470;19.166;2023-02-18T05:50:41;2.40;;;0.60;;
75148;SDS011;63724;47.470;19.166;2023-02-18T05:53:43;1.13;;;0.37;;
75148;SDS011;63724;47.470;19.166;2023-02-18T05:56:46;0.63;;;0.35;;
75148;SDS011;63724;47.470;19.166;2023-02-18T05:59:48;1.40;;;0.60;;
75148;SDS011;63724;47.470;19.166;2023-02-18T06:02:51;0.57;;;0.40;;
75148;SDS011;63724;47.470;19.166;2023-02-18T06:05:53;1.97;;;0.50;;
75148;SDS011;63724;47.470;19.166;2023-02-18T06:08:56;0.87;;;0.60;;
75148;SDS011;63724;47.470;19.166;2023-02-18T06:11:58;1.02;;;0.52;;
75148;SDS011;63724;47.470;19.166;2023-02-18T06:15:00;0.68;;;0.50;;
75148;SDS011;63724;47.470;19.166;2023-02-18T06:18:03;0.40;;;0.40;;
75148;SDS011;63724;47.470;19.166;2023-02-18T06:21:06;0.67;;;0.60;;
75148;SDS011;63724;47.470;19.166;2023-02-18T06:24:09;1.73;;;0.57;;
75148;SDS011;63724;47.470;19.166;2023-02-18T06:27:11;1.42;;;0.60;;
75148;SDS011;63724;47.470;19.166;2023-02-18T06:30:14;0.77;;;0.30;;
75148;SDS011;63724;47.470;19.166;2023-02-18T06:33:16;0.98;;;0.50;;
75148;SDS011;63724;47.470;19.166;2023-02-18T06:36:18;0.57;;;0.40;;
75148;SDS011;63724;47.470;19.166;2023-02-18T06:39:21;1.30;;;0.53;;
75148;SDS011;63724;47.470;19.166;2023-02-18T06:42:23;0.88;;;0.40;;
75148;SDS011;63724;47.470;19.166;2023-02-18T06:45:25;0.57;;;0.40;;
75148;SDS011;63724;47.470;19.166;2023-02-18T06:48:28;1.05;;;0.40;;
75148;SDS011;63724;47.470;19.166;2023-02-18T06:51:30;3.70;;;0.37;;
75148;SDS011;63724;47.470;19.166;2023-02-18T06:54:33;0.77;;;0.40;;
75148;SDS011;63724;47.470;19.166;2023-02-18T06:57:35;0.98;;;0.55;;
75148;SDS011;63724;47.470;19.166;2023-02-18T07:00:37;1.17;;;0.30;;
75148;SDS011;63724;47.470;19.166;2023-02-18T07:03:40;0.40;;;0.22;;
75148;SDS011;63724;47.470;19.166;2023-02-18T07:06:43;0.83;;;0.40;;
75148;SDS011;63724;47.470;19.166;2023-02-18T07:09:45;1.57;;;0.50;;
75148;SDS011;63724;47.470;19.166;2023-02-18T07:12:47;0.80;;;0.28;;
75148;SDS011;63724;47.470;19.166;2023-02-18T07:15:50;0.50;;;0.30;;
75148;SDS011;63724;47.470;19.166;2023-02-18T07:18:52;1.00;;;0.38;;
75148;SDS011;63724;47.470;19.166;2023-02-18T07:21:55;1.17;;;0.50;;
75148;SDS011;63724;47.470;19.166;2023-02-18T07:24:58;0.80;;;0.50;;
75148;SDS011;63724;47.470;19.166;2023-02-18T07:28:01;1.17;;;0.30;;
75148;SDS011;63724;47.470;19.166;2023-02-18T07:31:06;1.15;;;0.30;;
75148;SDS011;63724;47.470;19.166;2023-02-18T07:34:10;1.45;;;0.52;;
75148;SDS011;63724;47.470;19.166;2023-02-18T07:37:36;0.43;;;0.40;;
75148;SDS011;63724;47.470;19.166;2023-02-18T07:40:38;0.93;;;0.30;;
75148;SDS011;63724;47.470;19.166;2023-02-18T07:43:41;1.95;;;0.50;;
75148;SDS011;63724;47.470;19.166;2023-02-18T07:46:43;1.48;;;0.50;;
75148;SDS011;63724;47.470;19.166;2023-02-18T07:49:49;0.40;;;0.38;;
75148;SDS011;63724;47.470;19.166;2023-02-18T07:52:51;1.10;;;0.60;;
75148;SDS011;63724;47.470;19.166;2023-02-18T07:55:53;0.50;;;0.33;;
75148;SDS011;63724;47.470;19.166;2023-02-18T07:58:56;1.15;;;0.32;;
75148;SDS011;63724;47.470;19.166;2023-02-18T08:01:58;0.98;;;0.73;;
75148;SDS011;63724;47.470;19.166;2023-02-18T08:05:01;2.67;;;0.40;;
75148;SDS011;63724;47.470;19.166;2023-02-18T08:08:03;2.20;;;0.40;;
75148;SDS011;63724;47.470;19.166;2023-02-18T08:11:05;1.13;;;0.40;;
75148;SDS011;63724;47.470;19.166;2023-02-18T08:14:20;1.25;;;0.57;;
75148;SDS011;63724;47.470;19.166;2023-02-18T08:17:22;0.60;;;0.28;;
75148;SDS011;63724;47.470;19.166;2023-02-18T08:20:24;1.40;;;0.28;;
75148;SDS011;63724;47.470;19.166;2023-02-18T08:23:27;0.40;;;0.20;;
75148;SDS011;63724;47.470;19.166;2023-02-18T08:26:31;0.93;;;0.40;;
75148;SDS011;63724;47.470;19.166;2023-02-18T08:29:34;1.02;;;0.30;;
75148;SDS011;63724;47.470;19.166;2023-02-18T08:32:36;0.60;;;0.25;;
75148;SDS011;63724;47.470;19.166;2023-02-18T08:35:39;3.40;;;0.35;;
75148;SDS011;63724;47.470;19.166;2023-02-18T08:38:42;1.47;;;0.20;;
75148;SDS011;63724;47.470;19.166;2023-02-18T08:41:44;0.70;;;0.47;;
75148;SDS011;63724;47.470;19.166;2023-02-18T08:44:46;1.55;;;0.30;;
75148;SDS011;63724;47.470;19.166;2023-02-18T08:47:49;0.60;;;0.30;;
75148;SDS011;63724;47.470;19.166;2023-02-18T08:51:12;2.17;;;0.20;;
75148;SDS011;63724;47.470;19.166;2023-02-18T08:54:16;0.50;;;0.30;;
75148;SDS011;63724;47.470;19.166;2023-02-18T08:57:19;0.50;;;0.20;;
75148;SDS011;63724;47.470;19.166;2023-02-18T09:00:21;2.15;;;0.40;;
75148;SDS011;63724;47.470;19.166;2023-02-18T09:03:24;0.40;;;0.20;;
75148;SDS011;63724;47.470;19.166;2023-02-18T09:06:27;0.40;;;0.20;;
75148;SDS011;63724;47.470;19.166;2023-02-18T09:09:30;2.10;;;0.70;;
75148;SDS011;63724;47.470;19.166;2023-02-18T09:12:33;2.47;;;0.30;;
75148;SDS011;63724;47.470;19.166;2023-02-18T09:15:35;0.45;;;0.25;;
75148;SDS011;63724;47.470;19.166;2023-02-18T09:18:38;2.03;;;0.40;;
75148;SDS011;63724;47.470;19.166;2023-02-18T09:21:40;0.68;;;0.40;;
75148;SDS011;63724;47.470;19.166;2023-02-18T09:24:43;0.70;;;0.60;;
75148;SDS011;63724;47.470;19.166;2023-02-18T09:27:46;0.83;;;0.30;;
75148;SDS011;63724;47.470;19.166;2023-02-18T09:30:48;2.55;;;0.40;;
75148;SDS011;63724;47.470;19.166;2023-02-18T09:33:52;0.47;;;0.30;;
75148;SDS011;63724;47.470;19.166;2023-02-18T09:36:55;1.23;;;0.28;;
75148;SDS011;63724;47.470;19.166;2023-02-18T09:39:58;1.57;;;0.60;;
75148;SDS011;63724;47.470;19.166;2023-02-18T09:43:01;1.47;;;0.40;;
75148;SDS011;63724;47.470;19.166;2023-02-18T09:46:04;0.45;;;0.15;;
75148;SDS011;63724;47.470;19.166;2023-02-18T09:50:07;1.98;;;0.20;;
75148;SDS011;63724;47.470;19.166;2023-02-18T09:53:05;0.38;;;0.30;;
75148;SDS011;63724;47.470;19.166;2023-02-18T09:56:08;0.40;;;0.20;;
75148;SDS011;63724;47.470;19.166;2023-02-18T09:59:18;0.70;;;0.20;;
75148;SDS011;63724;47.470;19.166;2023-02-18T10:02:21;2.65;;;0.43;;
75148;SDS011;63724;47.470;19.166;2023-02-18T10:05:25;0.40;;;0.22;;
75148;SDS011;63724;47.470;19.166;2023-02-18T10:08:33;0.77;;;0.40;;
75148;SDS011;63724;47.470;19.166;2023-02-18T10:11:39;0.70;;;0.30;;
75148;SDS011;63724;47.470;19.166;2023-02-18T10:14:43;0.60;;;0.30;;
75148;SDS011;63724;47.470;19.166;2023-02-18T10:17:49;0.45;;;0.30;;
75148;SDS011;63724;47.470;19.166;2023-02-18T10:20:55;0.60;;;0.25;;
75148;SDS011;63724;47.470;19.166;2023-02-18T10:27:30;1.17;;;0.40;;
75148;SDS011;63724;47.470;19.166;2023-02-18T10:30:35;1.20;;;0.20;;
75148;SDS011;63724;47.470;19.166;2023-02-18T10:33:46;3.05;;;0.20;;
75148;SDS011;63724;47.470;19.166;2023-02-18T10:40:34;1.90;;;0.40;;
75148;SDS011;63724;47.470;19.166;2023-02-18T10:59:31;1.30;;;0.37;;
75148;SDS011;63724;47.470;19.166;2023-02-18T11:02:34;1.50;;;0.20;;
75148;SDS011;63724;47.470;19.166;2023-02-18T11:05:36;1.05;;;0.30;;
75148;SDS011;63724;47.470;19.166;2023-02-18T11:08:41;1.00;;;0.30;;
75148;SDS011;63724;47.470;19.166;2023-02-18T11:11:45;2.58;;;0.30;;
75148;SDS011;63724;47.470;19.166;2023-02-18T11:18:27;3.13;;;0.40;;
75148;SDS011;63724;47.470;19.166;2023-02-18T11:21:35;1.42;;;0.50;;
75148;SDS011;63724;47.470;19.166;2023-02-18T11:24:38;2.70;;;0.50;;
75148;SDS011;63724;47.470;19.166;2023-02-18T11:27:42;2.13;;;0.50;;
75148;SDS011;63724;47.470;19.166;2023-02-18T11:30:46;1.10;;;0.40;;
75148;SDS011;63724;47.470;19.166;2023-02-18T11:33:52;2.73;;;0.37;;
75148;SDS011;63724;47.470;19.166;2023-02-18T11:37:08;0.70;;;0.30;;
75148;SDS011;63724;47.470;19.166;2023-02-18T11:40:29;0.50;;;0.50;;
75148;SDS011;63724;47.470;19.166;2023-02-18T11:43:33;2.50;;;0.45;;
75148;SDS011;63724;47.470;19.166;2023-02-18T11:46:36;2.30;;;1.13;;
75148;SDS011;63724;47.470;19.166;2023-02-18T11:49:42;0.90;;;0.50;;
75148;SDS011;63724;47.470;19.166;2023-02-18T11:52:47;0.70;;;0.35;;
75148;SDS011;63724;47.470;19.166;2023-02-18T11:55:55;1.80;;;0.38;;
75148;SDS011;63724;47.470;19.166;2023-02-18T11:59:00;3.22;;;0.63;;
75148;SDS011;63724;47.470;19.166;2023-02-18T12:05:15;3.50;;;0.70;;
75148;SDS011;63724;47.470;19.166;2023-02-18T12:08:27;1.10;;;0.60;;
75148;SDS011;63724;47.470;19.166;2023-02-18T12:11:34;2.40;;;0.75;;
75148;SDS011;63724;47.470;19.166;2023-02-18T12:14:40;2.22;;;0.63;;
75148;SDS011;63724;47.470;19.166;2023-02-18T12:27:47;1.20;;;0.73;;
75148;SDS011;63724;47.470;19.166;2023-02-18T12:34:29;0.80;;;0.43;;
75148;SDS011;63724;47.470;19.166;2023-02-18T12:41:35;1.05;;;0.28;;
75148;SDS011;63724;47.470;19.166;2023-02-18T13:08:48;0.40;;;0.30;;
75148;SDS011;63724;47.470;19.166;2023-02-18T13:18:44;0.90;;;0.25;;
75148;SDS011;63724;47.470;19.166;2023-02-18T13:21:51;0.28;;;0.20;;
75148;SDS011;63724;47.470;19.166;2023-02-18T13:24:56;1.17;;;0.20;;
75148;SDS011;63724;47.470;19.166;2023-02-18T13:34:30;1.33;;;0.20;;
75148;SDS011;63724;47.470;19.166;2023-02-18T13:40:41;1.30;;;0.10;;
75148;SDS011;63724;47.470;19.166;2023-02-18T13:43:43;0.53;;;0.03;;
75148;SDS011;63724;47.470;19.166;2023-02-18T13:46:49;0.30;;;0.10;;
75148;SDS011;63724;47.470;19.166;2023-02-18T13:49:53;0.63;;;0.17;;
75148;SDS011;63724;47.470;19.166;2023-02-18T14:02:35;0.63;;;0.20;;
75148;SDS011;63724;47.470;19.166;2023-02-18T14:05:38;0.60;;;0.10;;
75148;SDS011;63724;47.470;19.166;2023-02-18T14:08:43;0.43;;;0.15;;
75148;SDS011;63724;47.470;19.166;2023-02-18T14:11:49;1.90;;;0.30;;
75148;SDS011;63724;47.470;19.166;2023-02-18T14:14:57;0.33;;;0.10;;
75148;SDS011;63724;47.470;19.166;2023-02-18T14:18:19;0.10;;;0.10;;
75148;SDS011;63724;47.470;19.166;2023-02-18T14:21:35;1.33;;;0.20;;
75148;SDS011;63724;47.470;19.166;2023-02-18T14:24:46;1.20;;;0.10;;
75148;SDS011;63724;47.470;19.166;2023-02-18T14:27:51;0.50;;;0.10;;
75148;SDS011;63724;47.470;19.166;2023-02-18T14:30:54;0.40;;;0.13;;
75148;SDS011;63724;47.470;19.166;2023-02-18T14:38:26;0.28;;;0.10;;
75148;SDS011;63724;47.470;19.166;2023-02-18T14:41:23;1.33;;;0.40;;
75148;SDS011;63724;47.470;19.166;2023-02-18T14:51:20;0.98;;;0.20;;
75148;SDS011;63724;47.470;19.166;2023-02-18T14:54:25;0.28;;;0.17;;
75148;SDS011;63724;47.470;19.166;2023-02-18T14:57:40;0.50;;;0.32;;
75148;SDS011;63724;47.470;19.166;2023-02-18T15:00:45;17.67;;;8.73;;
75148;SDS011;63724;47.470;19.166;2023-02-18T15:03:48;22.93;;;11.43;;
75148;SDS011;63724;47.470;19.166;2023-02-18T15:06:58;26.25;;;12.77;;
75148;SDS011;63724;47.470;19.166;2023-02-18T15:10:03;25.33;;;12.65;;
75148;SDS011;63724;47.470;19.166;2023-02-18T15:13:07;23.77;;;12.60;;
75148;SDS011;63724;47.470;19.166;2023-02-18T15:16:36;23.77;;;13.67;;
75148;SDS011;63724;47.470;19.166;2023-02-18T15:19:47;24.73;;;13.87;;
75148;SDS011;63724;47.470;19.166;2023-02-18T15:22:53;29.77;;;15.20;;
75148;SDS011;63724;47.470;19.166;2023-02-18T15:25:56;29.17;;;15.13;;
75148;SDS011;63724;47.470;19.166;2023-02-18T15:29:00;34.22;;;16.65;;
75148;SDS011;63724;47.470;19.166;2023-02-18T15:35:18;34.93;;;18.33;;
75148;SDS011;63724;47.470;19.166;2023-02-18T15:38:21;32.38;;;17.83;;
75148;SDS011;63724;47.470;19.166;2023-02-18T15:41:24;41.38;;;20.05;;
75148;SDS011;63724;47.470;19.166;2023-02-18T15:44:27;32.30;;;18.00;;
75148;SDS011;63724;47.470;19.166;2023-02-18T15:47:31;37.07;;;19.03;;
75148;SDS011;63724;47.470;19.166;2023-02-18T15:50:35;35.53;;;18.77;;
75148;SDS011;63724;47.470;19.166;2023-02-18T15:53:39;39.33;;;20.15;;
75148;SDS011;63724;47.470;19.166;2023-02-18T15:56:44;43.95;;;20.52;;
75148;SDS011;63724;47.470;19.166;2023-02-18T15:59:59;45.08;;;20.98;;
75148;SDS011;63724;47.470;19.166;2023-02-18T16:03:28;43.57;;;21.77;;
75148;SDS011;63724;47.470;19.166;2023-02-18T16:06:36;43.77;;;21.67;;
75148;SDS011;63724;47.470;19.166;2023-02-18T16:09:40;42.40;;;21.05;;
75148;SDS011;63724;47.470;19.166;2023-02-18T16:12:44;48.70;;;23.65;;
75148;SDS011;63724;47.470;19.166;2023-02-18T16:15:51;50.20;;;21.85;;
75148;SDS011;63724;47.470;19.166;2023-02-18T16:18:54;45.23;;;21.93;;
75148;SDS011;63724;47.470;19.166;2023-02-18T16:22:03;48.40;;;22.00;;
75148;SDS011;63724;47.470;19.166;2023-02-18T16:31:30;47.63;;;23.48;;
75148;SDS011;63724;47.470;19.166;2023-02-18T16:34:33;48.87;;;23.07;;
75148;SDS011;63724;47.470;19.166;2023-02-18T16:37:37;48.30;;;23.27;;
75148;SDS011;63724;47.470;19.166;2023-02-18T16:40:39;50.42;;;24.60;;
75148;SDS011;63724;47.470;19.166;2023-02-18T16:43:42;56.58;;;25.90;;
75148;SDS011;63724;47.470;19.166;2023-02-18T16:46:44;50.60;;;24.25;;
75148;SDS011;63724;47.470;19.166;2023-02-18T16:49:48;55.83;;;24.77;;
75148;SDS011;63724;47.470;19.166;2023-02-18T16:52:51;56.47;;;24.37;;
75148;SDS011;63724;47.470;19.166;2023-02-18T16:55:54;54.50;;;25.08;;
75148;SDS011;63724;47.470;19.166;2023-02-18T16:58:57;56.25;;;26.95;;
75148;SDS011;63724;47.470;19.166;2023-02-18T17:01:59;57.25;;;25.35;;
75148;SDS011;63724;47.470;19.166;2023-02-18T17:05:01;61.10;;;27.40;;
75148;SDS011;63724;47.470;19.166;2023-02-18T17:11:27;63.60;;;27.70;;
75148;SDS011;63724;47.470;19.166;2023-02-18T17:14:30;59.47;;;26.48;;
75148;SDS011;63724;47.470;19.166;2023-02-18T17:17:34;60.42;;;27.20;;
75148;SDS011;63724;47.470;19.166;2023-02-18T17:20:36;58.57;;;28.07;;
75148;SDS011;63724;47.470;19.166;2023-02-18T17:23:39;71.20;;;29.33;;
75148;SDS011;63724;47.470;19.166;2023-02-18T17:26:43;65.13;;;28.40;;
75148;SDS011;63724;47.470;19.166;2023-02-18T17:29:45;63.83;;;28.38;;
75148;SDS011;63724;47.470;19.166;2023-02-18T17:32:48;66.93;;;30.23;;
75148;SDS011;63724;47.470;19.166;2023-02-18T17:35:50;65.63;;;29.43;;
75148;SDS011;63724;47.470;19.166;2023-02-18T17:38:53;64.03;;;29.70;;
75148;SDS011;63724;47.470;19.166;2023-02-18T17:41:55;60.15;;;28.98;;
75148;SDS011;63724;47.470;19.166;2023-02-18T17:44:57;66.28;;;30.17;;
75148;SDS011;63724;47.470;19.166;2023-02-18T17:48:02;66.55;;;29.17;;
75148;SDS011;63724;47.470;19.166;2023-02-18T17:51:05;63.63;;;30.03;;
75148;SDS011;63724;47.470;19.166;2023-02-18T17:54:12;70.33;;;30.47;;
75148;SDS011;63724;47.470;19.166;2023-02-18T17:57:18;68.03;;;29.77;;
75148;SDS011;63724;47.470;19.166;2023-02-18T18:00:26;63.47;;;29.63;;
75148;SDS011;63724;47.470;19.166;2023-02-18T18:03:33;69.32;;;31.15;;
75148;SDS011;63724;47.470;19.166;2023-02-18T18:06:35;72.00;;;30.90;;
75148;SDS011;63724;47.470;19.166;2023-02-18T18:09:37;71.87;;;31.87;;
75148;SDS011;63724;47.470;19.166;2023-02-18T18:12:40;66.25;;;30.63;;
75148;SDS011;63724;47.470;19.166;2023-02-18T18:15:43;68.72;;;30.55;;
75148;SDS011;63724;47.470;19.166;2023-02-18T18:18:46;60.72;;;28.88;;
75148;SDS011;63724;47.470;19.166;2023-02-18T18:21:48;66.23;;;30.37;;
75148;SDS011;63724;47.470;19.166;2023-02-18T18:24:51;62.77;;;29.00;;
75148;SDS011;63724;47.470;19.166;2023-02-18T18:27:53;66.95;;;28.80;;
75148;SDS011;63724;47.470;19.166;2023-02-18T18:30:56;61.92;;;28.20;;
75148;SDS011;63724;47.470;19.166;2023-02-18T18:33:59;58.90;;;28.60;;
75148;SDS011;63724;47.470;19.166;2023-02-18T18:37:02;68.97;;;30.63;;
75148;SDS011;63724;47.470;19.166;2023-02-18T18:40:05;65.27;;;29.30;;
75148;SDS011;63724;47.470;19.166;2023-02-18T18:43:11;64.45;;;29.30;;
75148;SDS011;63724;47.470;19.166;2023-02-18T18:46:20;65.20;;;27.83;;
75148;SDS011;63724;47.470;19.166;2023-02-18T18:49:23;66.20;;;29.40;;
75148;SDS011;63724;47.470;19.166;2023-02-18T18:52:25;67.87;;;31.03;;
75148;SDS011;63724;47.470;19.166;2023-02-18T18:55:32;60.23;;;28.83;;
75148;SDS011;63724;47.470;19.166;2023-02-18T18:58:37;58.65;;;28.13;;
75148;SDS011;63724;47.470;19.166;2023-02-18T19:01:40;63.63;;;28.20;;
75148;SDS011;63724;47.470;19.166;2023-02-18T19:04:42;64.85;;;29.90;;
75148;SDS011;63724;47.470;19.166;2023-02-18T19:07:45;72.10;;;30.80;;
75148;SDS011;63724;47.470;19.166;2023-02-18T19:10:50;69.10;;;31.67;;
75148;SDS011;63724;47.470;19.166;2023-02-18T19:13:57;68.75;;;30.85;;
75148;SDS011;63724;47.470;19.166;2023-02-18T19:16:59;69.53;;;30.95;;
75148;SDS011;63724;47.470;19.166;2023-02-18T19:20:03;73.80;;;31.67;;
75148;SDS011;63724;47.470;19.166;2023-02-18T19:23:06;68.03;;;32.17;;
75148;SDS011;63724;47.470;19.166;2023-02-18T19:26:09;66.43;;;30.60;;
75148;SDS011;63724;47.470;19.166;2023-02-18T19:29:11;73.22;;;33.53;;
75148;SDS011;63724;47.470;19.166;2023-02-18T19:32:13;69.35;;;32.50;;
75148;SDS011;63724;47.470;19.166;2023-02-18T19:35:16;73.70;;;32.95;;
75148;SDS011;63724;47.470;19.166;2023-02-18T19:38:19;72.70;;;32.30;;
75148;SDS011;63724;47.470;19.166;2023-02-18T19:41:21;71.10;;;32.63;;
75148;SDS011;63724;47.470;19.166;2023-02-18T19:44:23;67.10;;;31.50;;
75148;SDS011;63724;47.470;19.166;2023-02-18T19:47:26;69.45;;;31.70;;
75148;SDS011;63724;47.470;19.166;2023-02-18T19:50:29;71.53;;;33.17;;
75148;SDS011;63724;47.470;19.166;2023-02-18T19:53:32;71.47;;;32.93;;
75148;SDS011;63724;47.470;19.166;2023-02-18T19:56:34;65.20;;;30.03;;
75148;SDS011;63724;47.470;19.166;2023-02-18T19:59:39;68.00;;;30.27;;
75148;SDS011;63724;47.470;19.166;2023-02-18T20:02:44;67.40;;;30.08;;
75148;SDS011;63724;47.470;19.166;2023-02-18T20:05:46;57.47;;;27.63;;
75148;SDS011;63724;47.470;19.166;2023-02-18T20:08:49;68.50;;;29.30;;
75148;SDS011;63724;47.470;19.166;2023-02-18T20:11:52;65.43;;;26.60;;
75148;SDS011;63724;47.470;19.166;2023-02-18T20:14:55;54.05;;;26.55;;
75148;SDS011;63724;47.470;19.166;2023-02-18T20:17:57;58.97;;;27.05;;
75148;SDS011;63724;47.470;19.166;2023-02-18T20:20:59;55.60;;;24.85;;
75148;SDS011;63724;47.470;19.166;2023-02-18T20:24:02;58.70;;;25.67;;
75148;SDS011;63724;47.470;19.166;2023-02-18T20:27:04;50.67;;;24.07;;
75148;SDS011;63724;47.470;19.166;2023-02-18T20:30:08;53.13;;;25.08;;
75148;SDS011;63724;47.470;19.166;2023-02-18T20:33:11;44.65;;;21.10;;
75148;SDS011;63724;47.470;19.166;2023-02-18T20:36:14;46.83;;;22.08;;
75148;SDS011;63724;47.470;19.166;2023-02-18T20:39:16;49.90;;;22.80;;
75148;SDS011;63724;47.470;19.166;2023-02-18T20:42:19;48.27;;;23.00;;
75148;SDS011;63724;47.470;19.166;2023-02-18T20:45:22;44.90;;;21.75;;
75148;SDS011;63724;47.470;19.166;2023-02-18T20:48:24;49.10;;;22.25;;
75148;SDS011;63724;47.470;19.166;2023-02-18T20:51:27;49.50;;;23.70;;
75148;SDS011;63724;47.470;19.166;2023-02-18T20:54:29;50.47;;;24.57;;